Guilford Courthouse National, North Carolina
Current Conditions -  °F | °C
As of 6:54 AM on Sunday 21 Dec 2014 (Local Time) from KGSO Reporting Station
Haze Haze  
Wind Chill: 39°   Ceiling: 2500
Heat Index: 39°   Visibility: 6mi
Dew Point: 35°   Wind: 0mph
Humidity: 86%   Direction: NA
Pressure: 30.26"   Gusts: NA
Location:  36.1026°N, 79.8146°W
Report Text: KGSO 211154Z 00000KT 6SM BR OVC025 04/02 A3026 RMK AO2 SLP250 T00390017 10039 20033 53008
Loading
Personal Weather Stations






























Interactive Weather Map New forecast layout! Learn more

10-Day Weather Forecast

Advertisements
Track Severe Weather on mobile